sensor_id;sensor_type;location;lat;lon;timestamp;pressure;altitude;pressure_sealevel;temperature;humidity
75008;BME280;63554;48.940;12.050;2023-05-02T03:50:46;97470.00;;;8.05;98.20
75008;BME280;63554;48.940;12.050;2023-05-02T03:54:49;97478.72;;;8.07;98.35
75008;BME280;63554;48.940;12.050;2023-05-02T03:58:52;97482.84;;;8.03;98.13
75008;BME280;63554;48.940;12.050;2023-05-02T04:02:55;97488.88;;;8.05;98.14
75008;BME280;63554;48.940;12.050;2023-05-02T04:06:59;97493.44;;;8.05;98.12
75008;BME280;63554;48.940;12.050;2023-05-02T04:11:02;97501.94;;;8.02;97.96
75008;BME280;63554;48.940;12.050;2023-05-02T04:15:05;97506.53;;;8.08;98.00
75008;BME280;63554;48.940;12.050;2023-05-02T04:19:08;97509.44;;;8.13;97.94
75008;BME280;63554;48.940;12.050;2023-05-02T04:23:13;97514.19;;;8.11;97.24
75008;BME280;63554;48.940;12.050;2023-05-02T04:27:16;97517.53;;;8.13;97.26
75008;BME280;63554;48.940;12.050;2023-05-02T04:31:19;97519.78;;;8.09;96.79
75008;BME280;63554;48.940;12.050;2023-05-02T04:35:21;97538.88;;;8.15;96.37
75008;BME280;63554;48.940;12.050;2023-05-02T04:39:25;97530.19;;;8.19;96.25
75008;BME280;63554;48.940;12.050;2023-05-02T04:43:28;97530.00;;;8.21;95.77
75008;BME280;63554;48.940;12.050;2023-05-02T04:47:31;97539.59;;;8.30;95.90
75008;BME280;63554;48.940;12.050;2023-05-02T04:51:33;97532.75;;;8.34;95.58
75008;BME280;63554;48.940;12.050;2023-05-02T04:55:37;97533.59;;;8.35;95.14
75008;BME280;63554;48.940;12.050;2023-05-02T04:59:40;97547.31;;;8.40;95.29
75008;BME280;63554;48.940;12.050;2023-05-02T05:03:43;97552.75;;;8.46;94.89
75008;BME280;63554;48.940;12.050;2023-05-02T05:07:46;97547.59;;;8.45;94.98
75008;BME280;63554;48.940;12.050;2023-05-02T05:11:50;97560.88;;;8.53;94.66
75008;BME280;63554;48.940;12.050;2023-05-02T05:15:52;97569.41;;;8.57;94.66
75008;BME280;63554;48.940;12.050;2023-05-02T05:19:55;97564.03;;;8.57;94.56
75008;BME280;63554;48.940;12.050;2023-05-02T05:23:58;97570.66;;;8.61;94.34
75008;BME280;63554;48.940;12.050;2023-05-02T05:28:02;97564.47;;;8.67;94.66
75008;BME280;63554;48.940;12.050;2023-05-02T05:32:05;97569.66;;;8.68;94.38
75008;BME280;63554;48.940;12.050;2023-05-02T05:36:09;97586.25;;;8.72;94.53
75008;BME280;63554;48.940;12.050;2023-05-02T05:40:12;97589.81;;;8.73;94.70
75008;BME280;63554;48.940;12.050;2023-05-02T05:44:16;97596.66;;;8.75;94.71
75008;BME280;63554;48.940;12.050;2023-05-02T05:48:20;97602.28;;;8.80;94.54
75008;BME280;63554;48.940;12.050;2023-05-02T05:52:23;97605.19;;;8.79;94.37
75008;BME280;63554;48.940;12.050;2023-05-02T05:56:25;97602.50;;;8.85;94.00
75008;BME280;63554;48.940;12.050;2023-05-02T06:00:30;97609.38;;;8.88;93.46
75008;BME280;63554;48.940;12.050;2023-05-02T06:04:33;97612.31;;;9.00;93.52
75008;BME280;63554;48.940;12.050;2023-05-02T06:08:35;97611.53;;;9.19;92.79
75008;BME280;63554;48.940;12.050;2023-05-02T06:12:38;97614.47;;;9.31;92.02
75008;BME280;63554;48.940;12.050;2023-05-02T06:16:42;97627.78;;;9.46;91.02
75008;BME280;63554;48.940;12.050;2023-05-02T06:20:45;97621.34;;;9.54;89.59
75008;BME280;63554;48.940;12.050;2023-05-02T06:24:48;97624.88;;;9.61;88.81
75008;BME280;63554;48.940;12.050;2023-05-02T06:28:51;97624.47;;;9.64;88.52
75008;BME280;63554;48.940;12.050;2023-05-02T06:32:55;97632.59;;;9.70;88.02
75008;BME280;63554;48.940;12.050;2023-05-02T06:36:58;97649.00;;;9.69;87.80
75008;BME280;63554;48.940;12.050;2023-05-02T06:41:00;97645.88;;;9.72;87.39
75008;BME280;63554;48.940;12.050;2023-05-02T06:45:04;97643.81;;;9.67;87.24
75008;BME280;63554;48.940;12.050;2023-05-02T06:49:08;97653.59;;;9.88;87.05
75008;BME280;63554;48.940;12.050;2023-05-02T06:53:11;97656.28;;;9.95;86.35
75008;BME280;63554;48.940;12.050;2023-05-02T06:57:14;97654.81;;;9.99;85.92
75008;BME280;63554;48.940;12.050;2023-05-02T07:01:16;97661.91;;;10.07;85.84
75008;BME280;63554;48.940;12.050;2023-05-02T07:05:21;97674.16;;;10.23;85.14
75008;BME280;63554;48.940;12.050;2023-05-02T07:09:23;97682.28;;;10.36;84.39
75008;BME280;63554;48.940;12.050;2023-05-02T07:13:26;97676.88;;;10.29;83.53
75008;BME280;63554;48.940;12.050;2023-05-02T07:17:29;97682.72;;;10.40;83.77
75008;BME280;63554;48.940;12.050;2023-05-02T07:21:34;97683.75;;;10.45;82.95
75008;BME280;63554;48.940;12.050;2023-05-02T07:25:37;97686.19;;;10.60;82.03
75008;BME280;63554;48.940;12.050;2023-05-02T07:29:40;97686.38;;;10.79;81.94
75008;BME280;63554;48.940;12.050;2023-05-02T07:33:43;97687.06;;;11.13;80.47
75008;BME280;63554;48.940;12.050;2023-05-02T07:37:48;97685.59;;;11.23;78.90
75008;BME280;63554;48.940;12.050;2023-05-02T07:41:51;97697.34;;;11.42;77.94
75008;BME280;63554;48.940;12.050;2023-05-02T07:45:54;97691.94;;;11.42;77.76
75008;BME280;63554;48.940;12.050;2023-05-02T07:49:57;97700.19;;;11.61;77.12
75008;BME280;63554;48.940;12.050;2023-05-02T07:54:01;97700.44;;;11.53;76.99
75008;BME280;63554;48.940;12.050;2023-05-02T07:58:04;97706.03;;;11.58;77.40
75008;BME280;63554;48.940;12.050;2023-05-02T08:02:06;97712.88;;;11.67;77.02
75008;BME280;63554;48.940;12.050;2023-05-02T08:06:09;97709.50;;;11.72;76.45
75008;BME280;63554;48.940;12.050;2023-05-02T08:10:14;97714.31;;;12.01;76.41
75008;BME280;63554;48.940;12.050;2023-05-02T08:14:17;97709.69;;;12.09;74.11
75008;BME280;63554;48.940;12.050;2023-05-02T08:18:20;97724.03;;;12.16;73.85
75008;BME280;63554;48.940;12.050;2023-05-02T08:22:22;97714.72;;;12.30;74.33
75008;BME280;63554;48.940;12.050;2023-05-02T08:26:27;97719.44;;;12.16;74.01
75008;BME280;63554;48.940;12.050;2023-05-02T08:30:29;97724.47;;;12.13;74.66
75008;BME280;63554;48.940;12.050;2023-05-02T08:34:32;97722.47;;;12.26;73.82
75008;BME280;63554;48.940;12.050;2023-05-02T08:38:35;97728.41;;;12.42;72.95
75008;BME280;63554;48.940;12.050;2023-05-02T08:42:41;97731.19;;;12.35;72.36
75008;BME280;63554;48.940;12.050;2023-05-02T08:46:45;97726.97;;;12.39;73.12
75008;BME280;63554;48.940;12.050;2023-05-02T08:50:51;97739.97;;;12.56;72.07
75008;BME280;63554;48.940;12.050;2023-05-02T08:54:54;97740.38;;;12.59;72.19
75008;BME280;63554;48.940;12.050;2023-05-02T08:58:58;97739.88;;;12.69;72.26
75008;BME280;63554;48.940;12.050;2023-05-02T09:03:05;97748.69;;;12.64;70.97
75008;BME280;63554;48.940;12.050;2023-05-02T09:07:10;97746.00;;;12.58;71.79
75008;BME280;63554;48.940;12.050;2023-05-02T09:11:14;97760.47;;;12.52;71.51
75008;BME280;63554;48.940;12.050;2023-05-02T09:15:19;97763.69;;;12.67;71.67
75008;BME280;63554;48.940;12.050;2023-05-02T09:19:25;97765.13;;;12.70;71.57
75008;BME280;63554;48.940;12.050;2023-05-02T09:23:32;97770.72;;;12.75;70.86
75008;BME280;63554;48.940;12.050;2023-05-02T09:27:47;97766.78;;;12.96;70.49
75008;BME280;63554;48.940;12.050;2023-05-02T09:31:53;97774.31;;;13.12;69.65
75008;BME280;63554;48.940;12.050;2023-05-02T09:35:57;97777.56;;;13.21;70.29
75008;BME280;63554;48.940;12.050;2023-05-02T09:40:07;97774.03;;;13.20;69.93
75008;BME280;63554;48.940;12.050;2023-05-02T09:44:12;97775.00;;;13.44;70.24
75008;BME280;63554;48.940;12.050;2023-05-02T09:48:16;97786.13;;;13.61;69.71
75008;BME280;63554;48.940;12.050;2023-05-02T09:52:20;97784.63;;;13.47;69.03
75008;BME280;63554;48.940;12.050;2023-05-02T09:56:23;97783.56;;;13.30;70.17
75008;BME280;63554;48.940;12.050;2023-05-02T10:00:44;97780.97;;;13.35;70.44
75008;BME280;63554;48.940;12.050;2023-05-02T10:04:48;97794.63;;;13.28;70.71
75008;BME280;63554;48.940;12.050;2023-05-02T10:08:51;97789.41;;;13.26;68.59
75008;BME280;63554;48.940;12.050;2023-05-02T10:12:54;97793.97;;;13.33;69.71
75008;BME280;63554;48.940;12.050;2023-05-02T10:17:00;97795.44;;;13.35;69.34
75008;BME280;63554;48.940;12.050;2023-05-02T10:21:09;97797.47;;;13.58;68.45
75008;BME280;63554;48.940;12.050;2023-05-02T10:25:12;97794.63;;;13.83;67.78
75008;BME280;63554;48.940;12.050;2023-05-02T10:29:15;97805.59;;;13.77;66.18
75008;BME280;63554;48.940;12.050;2023-05-02T10:33:19;97791.84;;;13.72;66.64
75008;BME280;63554;48.940;12.050;2023-05-02T10:37:24;97802.38;;;13.68;66.56
75008;BME280;63554;48.940;12.050;2023-05-02T10:41:29;97791.81;;;13.90;66.45
75008;BME280;63554;48.940;12.050;2023-05-02T10:45:33;97794.09;;;14.05;65.08
75008;BME280;63554;48.940;12.050;2023-05-02T10:49:48;97776.34;;;14.02;65.61
75008;BME280;63554;48.940;12.050;2023-05-02T10:53:52;97780.75;;;14.03;65.27
75008;BME280;63554;48.940;12.050;2023-05-02T10:58:19;97772.53;;;14.34;65.63
75008;BME280;63554;48.940;12.050;2023-05-02T11:02:50;97782.22;;;14.72;65.00
75008;BME280;63554;48.940;12.050;2023-05-02T11:07:17;97785.78;;;14.96;62.36
75008;BME280;63554;48.940;12.050;2023-05-02T11:11:40;97779.84;;;14.99;61.78
75008;BME280;63554;48.940;12.050;2023-05-02T11:15:53;97775.34;;;15.05;61.84
75008;BME280;63554;48.940;12.050;2023-05-02T11:20:27;97772.34;;;15.41;60.07
75008;BME280;63554;48.940;12.050;2023-05-02T11:24:37;97771.28;;;15.31;60.29
75008;BME280;63554;48.940;12.050;2023-05-02T11:28:42;97770.47;;;15.71;59.50
75008;BME280;63554;48.940;12.050;2023-05-02T11:33:11;97768.00;;;16.27;58.92
75008;BME280;63554;48.940;12.050;2023-05-02T11:37:17;97759.25;;;17.09;54.36
75008;BME280;63554;48.940;12.050;2023-05-02T11:41:20;97756.81;;;17.74;54.18
75008;BME280;63554;48.940;12.050;2023-05-02T11:45:31;97755.66;;;18.19;53.71
75008;BME280;63554;48.940;12.050;2023-05-02T11:49:35;97758.03;;;18.10;51.64
75008;BME280;63554;48.940;12.050;2023-05-02T11:53:39;97751.69;;;17.38;54.45
75008;BME280;63554;48.940;12.050;2023-05-02T11:57:43;97754.94;;;16.96;53.73
75008;BME280;63554;48.940;12.050;2023-05-02T12:01:49;97760.19;;;16.64;55.69
75008;BME280;63554;48.940;12.050;2023-05-02T12:05:54;97755.03;;;16.34;54.51
75008;BME280;63554;48.940;12.050;2023-05-02T12:09:57;97756.69;;;16.35;54.87
75008;BME280;63554;48.940;12.050;2023-05-02T12:14:01;97753.19;;;16.73;54.07
75008;BME280;63554;48.940;12.050;2023-05-02T12:18:05;97753.91;;;17.19;55.18
75008;BME280;63554;48.940;12.050;2023-05-02T12:22:09;97751.19;;;17.64;53.67
75008;BME280;63554;48.940;12.050;2023-05-02T12:26:17;97748.94;;;18.64;52.33
75008;BME280;63554;48.940;12.050;2023-05-02T12:30:29;97752.06;;;18.78;47.60
75008;BME280;63554;48.940;12.050;2023-05-02T12:34:33;97744.44;;;18.53;47.73
75008;BME280;63554;48.940;12.050;2023-05-02T12:38:36;97740.88;;;17.93;49.62
75008;BME280;63554;48.940;12.050;2023-05-02T12:42:39;97744.19;;;17.73;51.46
75008;BME280;63554;48.940;12.050;2023-05-02T12:46:57;97753.22;;;17.73;51.51
75008;BME280;63554;48.940;12.050;2023-05-02T12:51:01;97750.13;;;17.65;51.65
75008;BME280;63554;48.940;12.050;2023-05-02T12:55:19;97740.25;;;17.42;49.29
75008;BME280;63554;48.940;12.050;2023-05-02T12:59:26;97742.16;;;17.41;52.28
75008;BME280;63554;48.940;12.050;2023-05-02T13:03:28;97738.59;;;17.63;50.38
75008;BME280;63554;48.940;12.050;2023-05-02T13:07:34;97740.13;;;17.97;48.08
75008;BME280;63554;48.940;12.050;2023-05-02T13:11:37;97740.78;;;18.10;48.70
75008;BME280;63554;48.940;12.050;2023-05-02T13:15:41;97743.72;;;17.81;51.81
75008;BME280;63554;48.940;12.050;2023-05-02T13:19:44;97739.91;;;17.38;52.21
75008;BME280;63554;48.940;12.050;2023-05-02T13:24:03;97745.72;;;17.19;52.43
75008;BME280;63554;48.940;12.050;2023-05-02T13:28:06;97743.66;;;17.98;50.48
75008;BME280;63554;48.940;12.050;2023-05-02T13:32:09;97747.97;;;18.48;51.26
75008;BME280;63554;48.940;12.050;2023-05-02T13:36:11;97749.22;;;19.00;46.46
75008;BME280;63554;48.940;12.050;2023-05-02T13:40:15;97743.00;;;19.73;47.64
75008;BME280;63554;48.940;12.050;2023-05-02T13:44:20;97745.88;;;19.46;47.64
75008;BME280;63554;48.940;12.050;2023-05-02T13:48:23;97739.16;;;19.16;47.87
75008;BME280;63554;48.940;12.050;2023-05-02T13:52:27;97737.84;;;18.81;47.17
75008;BME280;63554;48.940;12.050;2023-05-02T13:56:31;97738.84;;;19.07;48.38
75008;BME280;63554;48.940;12.050;2023-05-02T14:00:34;97745.56;;;18.89;47.30
75008;BME280;63554;48.940;12.050;2023-05-02T14:04:37;97748.28;;;18.25;50.11
75008;BME280;63554;48.940;12.050;2023-05-02T14:08:40;97749.72;;;17.56;51.53
75008;BME280;63554;48.940;12.050;2023-05-02T14:12:44;97746.50;;;17.59;52.11
75008;BME280;63554;48.940;12.050;2023-05-02T14:16:46;97740.25;;;17.42;50.83
75008;BME280;63554;48.940;12.050;2023-05-02T14:20:51;97743.66;;;17.54;49.21
75008;BME280;63554;48.940;12.050;2023-05-02T14:24:53;97745.72;;;17.19;48.82
75008;BME280;63554;48.940;12.050;2023-05-02T14:28:58;97746.50;;;16.98;50.26
75008;BME280;63554;48.940;12.050;2023-05-02T14:33:01;97747.81;;;16.95;49.61
75008;BME280;63554;48.940;12.050;2023-05-02T14:37:03;97735.91;;;17.02;49.30
75008;BME280;63554;48.940;12.050;2023-05-02T14:41:06;97738.41;;;17.25;48.66
75008;BME280;63554;48.940;12.050;2023-05-02T14:45:10;97736.63;;;17.36;49.08
75008;BME280;63554;48.940;12.050;2023-05-02T14:49:13;97737.25;;;17.43;49.50
75008;BME280;63554;48.940;12.050;2023-05-02T14:53:17;97734.19;;;17.39;51.24
75008;BME280;63554;48.940;12.050;2023-05-02T14:57:19;97739.47;;;17.90;51.22
75008;BME280;63554;48.940;12.050;2023-05-02T15:01:24;97737.69;;;19.03;45.68
75008;BME280;63554;48.940;12.050;2023-05-02T15:05:27;97741.13;;;19.79;44.66
75008;BME280;63554;48.940;12.050;2023-05-02T15:09:30;97734.59;;;20.05;42.13
75008;BME280;63554;48.940;12.050;2023-05-02T15:13:33;97736.47;;;19.89;42.07
75008;BME280;63554;48.940;12.050;2023-05-02T15:17:37;97741.09;;;18.78;46.04
75008;BME280;63554;48.940;12.050;2023-05-02T15:21:40;97738.13;;;17.93;48.06
75008;BME280;63554;48.940;12.050;2023-05-02T15:25:42;97740.81;;;17.66;49.27
75008;BME280;63554;48.940;12.050;2023-05-02T15:29:46;97761.31;;;17.41;48.43
75008;BME280;63554;48.940;12.050;2023-05-02T15:33:50;97773.66;;;16.54;50.70
75008;BME280;63554;48.940;12.050;2023-05-02T15:37:52;97778.94;;;15.57;49.98
75008;BME280;63554;48.940;12.050;2023-05-02T15:41:55;97794.19;;;15.18;52.11
75008;BME280;63554;48.940;12.050;2023-05-02T15:45:59;97807.34;;;15.09;54.40
75008;BME280;63554;48.940;12.050;2023-05-02T15:50:03;97808.41;;;14.73;54.96
75008;BME280;63554;48.940;12.050;2023-05-02T15:54:06;97810.31;;;14.42;56.37
75008;BME280;63554;48.940;12.050;2023-05-02T15:58:09;97822.53;;;14.09;57.83
75008;BME280;63554;48.940;12.050;2023-05-02T16:02:12;97826.34;;;13.90;60.47
75008;BME280;63554;48.940;12.050;2023-05-02T16:06:16;97826.44;;;13.83;62.52
75008;BME280;63554;48.940;12.050;2023-05-02T16:10:19;97829.31;;;13.70;64.59
75008;BME280;63554;48.940;12.050;2023-05-02T16:14:23;97831.91;;;13.64;66.47
75008;BME280;63554;48.940;12.050;2023-05-02T16:18:27;97834.59;;;13.83;67.46
75008;BME280;63554;48.940;12.050;2023-05-02T16:22:31;97839.09;;;14.08;66.31
75008;BME280;63554;48.940;12.050;2023-05-02T16:26:33;97840.25;;;14.00;66.54
75008;BME280;63554;48.940;12.050;2023-05-02T16:30:36;97842.38;;;13.98;64.74
75008;BME280;63554;48.940;12.050;2023-05-02T16:34:39;97841.56;;;14.09;63.79
75008;BME280;63554;48.940;12.050;2023-05-02T16:38:43;97841.50;;;14.16;62.32
75008;BME280;63554;48.940;12.050;2023-05-02T16:42:47;97851.25;;;14.05;59.23
75008;BME280;63554;48.940;12.050;2023-05-02T16:46:49;97845.72;;;14.42;59.58
75008;BME280;63554;48.940;12.050;2023-05-02T16:50:52;97854.63;;;14.91;58.87
75008;BME280;63554;48.940;12.050;2023-05-02T16:54:56;97849.56;;;14.53;59.65
75008;BME280;63554;48.940;12.050;2023-05-02T16:58:59;97847.16;;;14.44;60.30
75008;BME280;63554;48.940;12.050;2023-05-02T17:03:04;97840.41;;;14.47;61.05
75008;BME280;63554;48.940;12.050;2023-05-02T17:07:07;97845.38;;;14.50;60.74
75008;BME280;63554;48.940;12.050;2023-05-02T17:11:13;97840.53;;;14.52;61.38
75008;BME280;63554;48.940;12.050;2023-05-02T17:15:16;97849.41;;;14.48;61.47
75008;BME280;63554;48.940;12.050;2023-05-02T17:19:20;97853.88;;;14.60;60.77
75008;BME280;63554;48.940;12.050;2023-05-02T17:23:23;97858.44;;;15.02;60.27
75008;BME280;63554;48.940;12.050;2023-05-02T17:27:27;97861.63;;;15.46;59.46
75008;BME280;63554;48.940;12.050;2023-05-02T17:31:29;97866.97;;;15.65;58.36
75008;BME280;63554;48.940;12.050;2023-05-02T17:35:32;97868.03;;;15.75;57.46
75008;BME280;63554;48.940;12.050;2023-05-02T17:39:35;97872.66;;;15.51;56.82
75008;BME280;63554;48.940;12.050;2023-05-02T17:43:39;97873.97;;;15.37;57.64
75008;BME280;63554;48.940;12.050;2023-05-02T17:47:43;97882.16;;;15.37;57.34
75008;BME280;63554;48.940;12.050;2023-05-02T17:51:46;97885.59;;;15.20;58.15
75008;BME280;63554;48.940;12.050;2023-05-02T17:55:49;97892.94;;;15.08;59.56
75008;BME280;63554;48.940;12.050;2023-05-02T17:59:53;97898.94;;;14.87;59.06
75008;BME280;63554;48.940;12.050;2023-05-02T18:03:58;97906.72;;;14.71;60.48
75008;BME280;63554;48.940;12.050;2023-05-02T18:08:02;97909.19;;;14.61;61.17
75008;BME280;63554;48.940;12.050;2023-05-02T18:12:05;97914.78;;;14.48;61.74
75008;BME280;63554;48.940;12.050;2023-05-02T18:16:09;97918.59;;;14.28;63.04
75008;BME280;63554;48.940;12.050;2023-05-02T18:20:12;97914.78;;;14.17;63.63
75008;BME280;63554;48.940;12.050;2023-05-02T18:24:15;97918.84;;;14.08;64.72
75008;BME280;63554;48.940;12.050;2023-05-02T18:28:17;97934.72;;;13.93;65.50
75008;BME280;63554;48.940;12.050;2023-05-02T18:32:21;97944.94;;;13.79;66.09
75008;BME280;63554;48.940;12.050;2023-05-02T18:36:27;97951.28;;;13.73;66.60
75008;BME280;63554;48.940;12.050;2023-05-02T18:40:29;97952.09;;;13.55;67.47
75008;BME280;63554;48.940;12.050;2023-05-02T18:44:32;97964.38;;;13.39;68.46
75008;BME280;63554;48.940;12.050;2023-05-02T18:48:36;97975.97;;;12.96;70.50
75008;BME280;63554;48.940;12.050;2023-05-02T18:52:39;97977.28;;;12.80;72.45
75008;BME280;63554;48.940;12.050;2023-05-02T18:56:42;97983.78;;;12.79;72.85
75008;BME280;63554;48.940;12.050;2023-05-02T19:00:45;97996.31;;;12.80;73.08
75008;BME280;63554;48.940;12.050;2023-05-02T19:04:49;97986.97;;;12.69;74.06
75008;BME280;63554;48.940;12.050;2023-05-02T19:08:51;98001.66;;;12.61;74.59
75008;BME280;63554;48.940;12.050;2023-05-02T19:12:57;98001.91;;;12.53;74.47
75008;BME280;63554;48.940;12.050;2023-05-02T19:17:00;98001.91;;;12.53;74.50
75008;BME280;63554;48.940;12.050;2023-05-02T19:21:10;98007.53;;;12.52;74.57
75008;BME280;63554;48.940;12.050;2023-05-02T19:25:14;98020.09;;;12.53;74.56
75008;BME280;63554;48.940;12.050;2023-05-02T19:29:18;98029.72;;;12.49;74.70
75008;BME280;63554;48.940;12.050;2023-05-02T19:33:21;98033.09;;;12.37;74.68
75008;BME280;63554;48.940;12.050;2023-05-02T19:37:27;98044.19;;;12.29;75.31
75008;BME280;63554;48.940;12.050;2023-05-02T19:41:29;98039.59;;;12.23;75.38
75008;BME280;63554;48.940;12.050;2023-05-02T19:45:32;98042.91;;;12.25;75.66
75008;BME280;63554;48.940;12.050;2023-05-02T19:49:36;98048.16;;;12.20;75.85
75008;BME280;63554;48.940;12.050;2023-05-02T19:53:40;98047.97;;;12.15;76.32
75008;BME280;63554;48.940;12.050;2023-05-02T19:57:43;98052.16;;;12.11;76.58
75008;BME280;63554;48.940;12.050;2023-05-02T20:01:45;98058.84;;;12.08;77.24
75008;BME280;63554;48.940;12.050;2023-05-02T20:05:49;98053.00;;;12.04;77.78
75008;BME280;63554;48.940;12.050;2023-05-02T20:09:53;98055.72;;;11.91;78.55
75008;BME280;63554;48.940;12.050;2023-05-02T20:13:56;98060.72;;;11.81;79.42
75008;BME280;63554;48.940;12.050;2023-05-02T20:17:58;98052.59;;;11.81;79.92
75008;BME280;63554;48.940;12.050;2023-05-02T20:22:02;98058.03;;;11.74;80.14
75008;BME280;63554;48.940;12.050;2023-05-02T20:26:06;98068.03;;;11.60;80.72
75008;BME280;63554;48.940;12.050;2023-05-02T20:30:09;98060.50;;;11.36;82.07
75008;BME280;63554;48.940;12.050;2023-05-02T20:34:14;98064.25;;;11.21;82.72
75008;BME280;63554;48.940;12.050;2023-05-02T20:38:17;98066.13;;;11.14;82.93
75008;BME280;63554;48.940;12.050;2023-05-02T20:42:24;98065.50;;;11.05;83.32
75008;BME280;63554;48.940;12.050;2023-05-02T20:46:27;98070.88;;;10.99;83.75
75008;BME280;63554;48.940;12.050;2023-05-02T20:50:30;98070.44;;;10.95;84.18
75008;BME280;63554;48.940;12.050;2023-05-02T20:54:33;98075.84;;;10.95;84.69
75008;BME280;63554;48.940;12.050;2023-05-02T20:58:37;98066.72;;;10.96;84.37
75008;BME280;63554;48.940;12.050;2023-05-02T21:02:40;98072.94;;;10.97;84.31
75008;BME280;63554;48.940;12.050;2023-05-02T21:06:42;98078.81;;;11.00;84.09
75008;BME280;63554;48.940;12.050;2023-05-02T21:10:45;98087.31;;;10.97;83.96
75008;BME280;63554;48.940;12.050;2023-05-02T21:14:49;98084.19;;;10.94;83.79
75008;BME280;63554;48.940;12.050;2023-05-02T21:18:52;98086.06;;;10.93;83.72
75008;BME280;63554;48.940;12.050;2023-05-02T21:22:55;98080.63;;;10.86;83.91
75008;BME280;63554;48.940;12.050;2023-05-02T21:26:58;98085.41;;;10.84;83.71
75008;BME280;63554;48.940;12.050;2023-05-02T21:31:02;98082.09;;;10.82;83.08
75008;BME280;63554;48.940;12.050;2023-05-02T21:35:05;98088.47;;;10.68;79.89
75008;BME280;63554;48.940;12.050;2023-05-02T21:39:08;98087.00;;;10.59;80.26
75008;BME280;63554;48.940;12.050;2023-05-02T21:43:10;98083.81;;;10.48;79.10
75008;BME280;63554;48.940;12.050;2023-05-02T21:47:15;98086.47;;;10.42;79.56
75008;BME280;63554;48.940;12.050;2023-05-02T21:51:18;98091.88;;;10.35;79.38
75008;BME280;63554;48.940;12.050;2023-05-02T21:55:21;98091.16;;;10.26;79.16
75008;BME280;63554;48.940;12.050;2023-05-02T21:59:23;98088.53;;;10.05;78.54
75008;BME280;63554;48.940;12.050;2023-05-02T22:03:27;98088.88;;;9.95;79.27
75008;BME280;63554;48.940;12.050;2023-05-02T22:07:31;98088.78;;;9.82;79.27
75008;BME280;63554;48.940;12.050;2023-05-02T22:11:34;98093.06;;;9.69;79.10
75008;BME280;63554;48.940;12.050;2023-05-02T22:15:40;98097.97;;;9.59;79.48
75008;BME280;63554;48.940;12.050;2023-05-02T22:19:47;98092.06;;;9.49;79.69
75008;BME280;63554;48.940;12.050;2023-05-02T22:23:49;98083.88;;;9.42;80.32
75008;BME280;63554;48.940;12.050;2023-05-02T22:27:52;98093.41;;;9.38;80.17
75008;BME280;63554;48.940;12.050;2023-05-02T22:31:55;98096.28;;;9.37;80.15
75008;BME280;63554;48.940;12.050;2023-05-02T22:35:59;98103.97;;;9.33;80.38
75008;BME280;63554;48.940;12.050;2023-05-02T22:40:02;98099.72;;;9.24;80.62
75008;BME280;63554;48.940;12.050;2023-05-02T22:44:05;98095.56;;;9.21;80.60
75008;BME280;63554;48.940;12.050;2023-05-02T22:48:08;98094.63;;;9.14;80.59
75008;BME280;63554;48.940;12.050;2023-05-02T22:52:13;98097.06;;;9.09;80.83
75008;BME280;63554;48.940;12.050;2023-05-02T22:56:18;98108.81;;;9.01;81.13
75008;BME280;63554;48.940;12.050;2023-05-02T23:00:21;98109.03;;;9.00;81.20
75008;BME280;63554;48.940;12.050;2023-05-02T23:04:25;98102.31;;;8.96;81.37
75008;BME280;63554;48.940;12.050;2023-05-02T23:08:29;98112.69;;;8.92;81.31
75008;BME280;63554;48.940;12.050;2023-05-02T23:12:32;98101.78;;;8.85;81.50
75008;BME280;63554;48.940;12.050;2023-05-02T23:16:34;98102.09;;;8.76;81.74
75008;BME280;63554;48.940;12.050;2023-05-02T23:20:37;98105.56;;;8.69;82.05
75008;BME280;63554;48.940;12.050;2023-05-02T23:24:41;98102.22;;;8.67;82.10
75008;BME280;63554;48.940;12.050;2023-05-02T23:28:46;98109.03;;;8.63;82.08
75008;BME280;63554;48.940;12.050;2023-05-02T23:32:48;98102.50;;;8.58;82.22
75008;BME280;63554;48.940;12.050;2023-05-02T23:36:52;98100.19;;;8.55;82.34
75008;BME280;63554;48.940;12.050;2023-05-02T23:40:56;98110.31;;;8.52;82.53
75008;BME280;63554;48.940;12.050;2023-05-02T23:44:58;98103.38;;;8.43;82.50
75008;BME280;63554;48.940;12.050;2023-05-02T23:49:01;98106.84;;;8.29;83.28
75008;BME280;63554;48.940;12.050;2023-05-02T23:53:03;98107.59;;;8.23;83.69
75008;BME280;63554;48.940;12.050;2023-05-02T23:57:09;98111.22;;;8.15;83.87
